sensor_id;sensor_type;location;lat;lon;timestamp;temperature;humidity
21267;DHT22;10791;53.108;18.326;2023-05-29T00:03:38;9.40;99.90
21267;DHT22;10791;53.108;18.326;2023-05-29T00:08:41;9.30;99.90
21267;DHT22;10791;53.108;18.326;2023-05-29T00:13:43;9.20;99.90
21267;DHT22;10791;53.108;18.326;2023-05-29T00:18:47;9.20;99.90
21267;DHT22;10791;53.108;18.326;2023-05-29T00:23:50;9.20;99.90
21267;DHT22;10791;53.108;18.326;2023-05-29T00:28:53;9.10;99.90
21267;DHT22;10791;53.108;18.326;2023-05-29T00:33:56;9.00;99.90
21267;DHT22;10791;53.108;18.326;2023-05-29T00:38:59;8.80;99.90
21267;DHT22;10791;53.108;18.326;2023-05-29T00:44:02;8.80;99.90
21267;DHT22;10791;53.108;18.326;2023-05-29T00:49:05;8.70;99.90
21267;DHT22;10791;53.108;18.326;2023-05-29T00:54:13;8.60;99.90
21267;DHT22;10791;53.108;18.326;2023-05-29T00:59:18;8.60;99.90
21267;DHT22;10791;53.108;18.326;2023-05-29T01:04:26;8.60;99.90
21267;DHT22;10791;53.108;18.326;2023-05-29T01:09:30;8.50;99.90
21267;DHT22;10791;53.108;18.326;2023-05-29T01:20:08;8.40;99.90
21267;DHT22;10791;53.108;18.326;2023-05-29T01:25:23;8.30;99.90
21267;DHT22;10791;53.108;18.326;2023-05-29T01:30:32;8.20;99.90
21267;DHT22;10791;53.108;18.326;2023-05-29T01:35:35;8.10;99.90
21267;DHT22;10791;53.108;18.326;2023-05-29T01:40:39;8.00;99.90
21267;DHT22;10791;53.108;18.326;2023-05-29T01:45:42;8.10;99.90
21267;DHT22;10791;53.108;18.326;2023-05-29T01:50:46;8.00;99.90
21267;DHT22;10791;53.108;18.326;2023-05-29T01:55:51;8.00;99.90
21267;DHT22;10791;53.108;18.326;2023-05-29T02:00:54;7.90;99.90
21267;DHT22;10791;53.108;18.326;2023-05-29T02:05:59;7.70;99.90
21267;DHT22;10791;53.108;18.326;2023-05-29T02:11:02;7.70;99.90
21267;DHT22;10791;53.108;18.326;2023-05-29T02:16:05;7.70;99.90
21267;DHT22;10791;53.108;18.326;2023-05-29T02:21:09;7.70;99.90
21267;DHT22;10791;53.108;18.326;2023-05-29T02:26:12;7.60;99.90
21267;DHT22;10791;53.108;18.326;2023-05-29T02:31:17;7.50;99.90
21267;DHT22;10791;53.108;18.326;2023-05-29T02:36:21;7.50;99.90
21267;DHT22;10791;53.108;18.326;2023-05-29T02:41:24;7.40;99.90
21267;DHT22;10791;53.108;18.326;2023-05-29T02:46:28;7.40;99.90
21267;DHT22;10791;53.108;18.326;2023-05-29T02:51:31;7.40;99.90
21267;DHT22;10791;53.108;18.326;2023-05-29T02:56:35;7.40;99.90
21267;DHT22;10791;53.108;18.326;2023-05-29T03:01:38;7.40;99.90
21267;DHT22;10791;53.108;18.326;2023-05-29T03:06:41;7.40;99.90
21267;DHT22;10791;53.108;18.326;2023-05-29T03:11:44;7.40;99.90
21267;DHT22;10791;53.108;18.326;2023-05-29T03:16:48;7.50;99.90
21267;DHT22;10791;53.108;18.326;2023-05-29T03:21:52;7.60;99.90
21267;DHT22;10791;53.108;18.326;2023-05-29T03:26:55;7.60;99.90
21267;DHT22;10791;53.108;18.326;2023-05-29T03:31:58;7.60;99.90
21267;DHT22;10791;53.108;18.326;2023-05-29T03:37:02;7.70;99.90
21267;DHT22;10791;53.108;18.326;2023-05-29T03:42:06;7.90;99.90
21267;DHT22;10791;53.108;18.326;2023-05-29T03:47:09;8.10;99.90
21267;DHT22;10791;53.108;18.326;2023-05-29T03:52:12;8.40;99.90
21267;DHT22;10791;53.108;18.326;2023-05-29T03:57:15;8.60;99.90
21267;DHT22;10791;53.108;18.326;2023-05-29T04:02:19;9.40;99.90
21267;DHT22;10791;53.108;18.326;2023-05-29T04:07:22;10.10;99.90
21267;DHT22;10791;53.108;18.326;2023-05-29T04:12:25;10.20;99.90
21267;DHT22;10791;53.108;18.326;2023-05-29T04:17:28;10.20;99.90
21267;DHT22;10791;53.108;18.326;2023-05-29T04:22:31;10.20;99.90
21267;DHT22;10791;53.108;18.326;2023-05-29T04:27:34;10.50;99.90
21267;DHT22;10791;53.108;18.326;2023-05-29T04:32:40;12.00;99.90
21267;DHT22;10791;53.108;18.326;2023-05-29T04:37:43;14.50;99.90
21267;DHT22;10791;53.108;18.326;2023-05-29T04:42:46;16.80;99.90
21267;DHT22;10791;53.108;18.326;2023-05-29T04:47:49;18.40;99.90
21267;DHT22;10791;53.108;18.326;2023-05-29T04:52:55;19.10;94.40
21267;DHT22;10791;53.108;18.326;2023-05-29T04:57:58;20.00;91.90
21267;DHT22;10791;53.108;18.326;2023-05-29T05:03:01;21.00;88.30
21267;DHT22;10791;53.108;18.326;2023-05-29T05:08:04;21.50;82.80
21267;DHT22;10791;53.108;18.326;2023-05-29T05:13:07;21.50;80.00
21267;DHT22;10791;53.108;18.326;2023-05-29T05:18:10;21.00;79.40
21267;DHT22;10791;53.108;18.326;2023-05-29T05:23:14;20.10;80.40
21267;DHT22;10791;53.108;18.326;2023-05-29T05:28:17;19.20;83.10
21267;DHT22;10791;53.108;18.326;2023-05-29T05:33:20;18.60;87.30
21267;DHT22;10791;53.108;18.326;2023-05-29T05:38:23;18.30;87.30
21267;DHT22;10791;53.108;18.326;2023-05-29T05:43:26;18.10;87.40
21267;DHT22;10791;53.108;18.326;2023-05-29T05:48:30;17.70;88.70
21267;DHT22;10791;53.108;18.326;2023-05-29T05:53:33;17.40;90.20
21267;DHT22;10791;53.108;18.326;2023-05-29T05:58:36;17.10;90.00
21267;DHT22;10791;53.108;18.326;2023-05-29T06:03:39;17.20;91.10
21267;DHT22;10791;53.108;18.326;2023-05-29T06:08:43;17.10;90.50
21267;DHT22;10791;53.108;18.326;2023-05-29T06:13:47;17.00;90.80
21267;DHT22;10791;53.108;18.326;2023-05-29T06:18:51;17.10;90.30
21267;DHT22;10791;53.108;18.326;2023-05-29T06:23:54;17.20;87.30
21267;DHT22;10791;53.108;18.326;2023-05-29T06:28:57;17.20;81.30
21267;DHT22;10791;53.108;18.326;2023-05-29T06:34:00;17.30;80.00
21267;DHT22;10791;53.108;18.326;2023-05-29T06:39:04;17.50;79.00
21267;DHT22;10791;53.108;18.326;2023-05-29T06:44:07;17.90;83.20
21267;DHT22;10791;53.108;18.326;2023-05-29T06:49:10;18.20;79.20
21267;DHT22;10791;53.108;18.326;2023-05-29T06:54:13;18.40;80.00
21267;DHT22;10791;53.108;18.326;2023-05-29T06:59:16;18.60;79.60
21267;DHT22;10791;53.108;18.326;2023-05-29T07:04:19;18.60;78.40
21267;DHT22;10791;53.108;18.326;2023-05-29T07:09:23;18.80;73.80
21267;DHT22;10791;53.108;18.326;2023-05-29T07:14:26;18.80;76.30
21267;DHT22;10791;53.108;18.326;2023-05-29T07:19:30;18.90;73.80
21267;DHT22;10791;53.108;18.326;2023-05-29T07:24:36;19.10;75.20
21267;DHT22;10791;53.108;18.326;2023-05-29T07:29:40;19.50;75.00
21267;DHT22;10791;53.108;18.326;2023-05-29T07:34:43;19.60;75.30
21267;DHT22;10791;53.108;18.326;2023-05-29T07:39:49;19.80;75.70
21267;DHT22;10791;53.108;18.326;2023-05-29T07:44:52;19.80;77.80
21267;DHT22;10791;53.108;18.326;2023-05-29T07:49:55;19.70;80.60
21267;DHT22;10791;53.108;18.326;2023-05-29T07:55:00;19.80;78.60
21267;DHT22;10791;53.108;18.326;2023-05-29T08:00:05;19.80;79.90
21267;DHT22;10791;53.108;18.326;2023-05-29T08:05:11;20.10;79.70
21267;DHT22;10791;53.108;18.326;2023-05-29T08:10:15;20.20;78.90
21267;DHT22;10791;53.108;18.326;2023-05-29T08:15:19;20.40;80.20
21267;DHT22;10791;53.108;18.326;2023-05-29T08:20:22;20.60;79.00
21267;DHT22;10791;53.108;18.326;2023-05-29T08:25:25;20.70;77.00
21267;DHT22;10791;53.108;18.326;2023-05-29T08:30:28;20.50;79.00
21267;DHT22;10791;53.108;18.326;2023-05-29T08:35:32;20.40;79.00
21267;DHT22;10791;53.108;18.326;2023-05-29T08:40:36;20.40;78.70
21267;DHT22;10791;53.108;18.326;2023-05-29T08:45:44;20.50;77.50
21267;DHT22;10791;53.108;18.326;2023-05-29T08:50:48;20.50;77.70
21267;DHT22;10791;53.108;18.326;2023-05-29T08:55:54;20.70;76.30
21267;DHT22;10791;53.108;18.326;2023-05-29T09:00:58;20.80;77.30
21267;DHT22;10791;53.108;18.326;2023-05-29T09:06:02;20.90;76.50
21267;DHT22;10791;53.108;18.326;2023-05-29T09:11:06;20.90;77.00
21267;DHT22;10791;53.108;18.326;2023-05-29T09:16:09;20.90;75.40
21267;DHT22;10791;53.108;18.326;2023-05-29T09:21:27;20.90;75.70
21267;DHT22;10791;53.108;18.326;2023-05-29T09:26:31;21.10;74.70
21267;DHT22;10791;53.108;18.326;2023-05-29T09:31:38;21.60;71.90
21267;DHT22;10791;53.108;18.326;2023-05-29T09:36:42;21.60;70.90
21267;DHT22;10791;53.108;18.326;2023-05-29T09:41:45;21.80;69.00
21267;DHT22;10791;53.108;18.326;2023-05-29T09:46:49;21.80;70.30
21267;DHT22;10791;53.108;18.326;2023-05-29T09:51:54;22.40;67.90
21267;DHT22;10791;53.108;18.326;2023-05-29T09:57:00;22.60;67.40
21267;DHT22;10791;53.108;18.326;2023-05-29T10:02:04;22.50;68.60
21267;DHT22;10791;53.108;18.326;2023-05-29T10:07:26;22.40;68.00
21267;DHT22;10791;53.108;18.326;2023-05-29T10:12:38;22.00;66.40
21267;DHT22;10791;53.108;18.326;2023-05-29T10:18:05;21.70;68.70
21267;DHT22;10791;53.108;18.326;2023-05-29T10:23:09;21.80;68.30
21267;DHT22;10791;53.108;18.326;2023-05-29T10:28:14;22.00;68.00
21267;DHT22;10791;53.108;18.326;2023-05-29T10:33:37;22.00;67.30
21267;DHT22;10791;53.108;18.326;2023-05-29T10:38:48;22.40;66.90
21267;DHT22;10791;53.108;18.326;2023-05-29T10:43:59;22.80;64.70
21267;DHT22;10791;53.108;18.326;2023-05-29T10:49:03;23.10;63.60
21267;DHT22;10791;53.108;18.326;2023-05-29T10:54:06;23.00;62.00
21267;DHT22;10791;53.108;18.326;2023-05-29T10:59:10;22.80;62.90
21267;DHT22;10791;53.108;18.326;2023-05-29T11:09:39;22.50;64.80
21267;DHT22;10791;53.108;18.326;2023-05-29T11:15:10;23.20;59.20
21267;DHT22;10791;53.108;18.326;2023-05-29T11:20:28;23.60;58.20
21267;DHT22;10791;53.108;18.326;2023-05-29T11:25:37;23.40;59.70
21267;DHT22;10791;53.108;18.326;2023-05-29T11:30:47;22.90;59.30
21267;DHT22;10791;53.108;18.326;2023-05-29T11:35:59;22.80;59.60
21267;DHT22;10791;53.108;18.326;2023-05-29T11:41:03;23.10;58.70
21267;DHT22;10791;53.108;18.326;2023-05-29T11:46:27;23.60;59.10
21267;DHT22;10791;53.108;18.326;2023-05-29T11:51:31;24.10;57.50
21267;DHT22;10791;53.108;18.326;2023-05-29T11:56:34;24.50;58.10
21267;DHT22;10791;53.108;18.326;2023-05-29T12:01:37;24.70;55.20
21267;DHT22;10791;53.108;18.326;2023-05-29T12:06:41;24.60;56.20
21267;DHT22;10791;53.108;18.326;2023-05-29T12:11:51;24.60;55.50
21267;DHT22;10791;53.108;18.326;2023-05-29T12:16:55;24.60;55.10
21267;DHT22;10791;53.108;18.326;2023-05-29T12:21:58;24.20;54.10
21267;DHT22;10791;53.108;18.326;2023-05-29T12:27:04;23.80;56.40
21267;DHT22;10791;53.108;18.326;2023-05-29T12:32:10;24.10;55.80
21267;DHT22;10791;53.108;18.326;2023-05-29T12:37:14;24.30;55.80
21267;DHT22;10791;53.108;18.326;2023-05-29T12:42:18;24.60;54.00
21267;DHT22;10791;53.108;18.326;2023-05-29T12:47:24;24.20;53.20
21267;DHT22;10791;53.108;18.326;2023-05-29T12:52:28;23.70;54.20
21267;DHT22;10791;53.108;18.326;2023-05-29T12:57:31;23.80;54.50
21267;DHT22;10791;53.108;18.326;2023-05-29T13:02:34;24.00;53.30
21267;DHT22;10791;53.108;18.326;2023-05-29T13:07:38;24.00;52.20
21267;DHT22;10791;53.108;18.326;2023-05-29T13:12:42;24.30;52.30
21267;DHT22;10791;53.108;18.326;2023-05-29T13:17:46;24.40;51.40
21267;DHT22;10791;53.108;18.326;2023-05-29T13:22:49;24.40;51.80
21267;DHT22;10791;53.108;18.326;2023-05-29T13:27:53;24.20;51.00
21267;DHT22;10791;53.108;18.326;2023-05-29T13:32:57;24.20;51.70
21267;DHT22;10791;53.108;18.326;2023-05-29T13:38:00;24.30;51.70
21267;DHT22;10791;53.108;18.326;2023-05-29T13:43:03;24.30;50.80
21267;DHT22;10791;53.108;18.326;2023-05-29T13:48:06;24.20;51.70
21267;DHT22;10791;53.108;18.326;2023-05-29T13:53:10;24.20;50.20
21267;DHT22;10791;53.108;18.326;2023-05-29T13:58:13;24.00;51.60
21267;DHT22;10791;53.108;18.326;2023-05-29T14:03:16;24.00;51.60
21267;DHT22;10791;53.108;18.326;2023-05-29T14:08:20;24.10;51.80
21267;DHT22;10791;53.108;18.326;2023-05-29T14:13:23;23.80;50.30
21267;DHT22;10791;53.108;18.326;2023-05-29T14:18:26;23.40;51.60
21267;DHT22;10791;53.108;18.326;2023-05-29T14:23:29;22.90;53.70
21267;DHT22;10791;53.108;18.326;2023-05-29T14:28:33;22.50;53.80
21267;DHT22;10791;53.108;18.326;2023-05-29T14:33:36;22.70;53.10
21267;DHT22;10791;53.108;18.326;2023-05-29T14:38:42;22.80;53.90
21267;DHT22;10791;53.108;18.326;2023-05-29T14:43:47;23.20;53.30
21267;DHT22;10791;53.108;18.326;2023-05-29T14:48:50;23.90;51.60
21267;DHT22;10791;53.108;18.326;2023-05-29T14:53:53;24.60;51.10
21267;DHT22;10791;53.108;18.326;2023-05-29T14:58:57;24.30;50.40
21267;DHT22;10791;53.108;18.326;2023-05-29T15:04:01;24.60;50.30
21267;DHT22;10791;53.108;18.326;2023-05-29T15:09:08;24.90;49.40
21267;DHT22;10791;53.108;18.326;2023-05-29T15:14:11;24.70;48.80
21267;DHT22;10791;53.108;18.326;2023-05-29T15:19:15;25.10;49.30
21267;DHT22;10791;53.108;18.326;2023-05-29T15:24:19;25.40;48.40
21267;DHT22;10791;53.108;18.326;2023-05-29T15:29:22;25.30;47.50
21267;DHT22;10791;53.108;18.326;2023-05-29T15:34:25;25.20;47.70
21267;DHT22;10791;53.108;18.326;2023-05-29T15:39:29;24.80;48.40
21267;DHT22;10791;53.108;18.326;2023-05-29T15:44:32;24.40;49.10
21267;DHT22;10791;53.108;18.326;2023-05-29T15:49:36;24.30;49.00
21267;DHT22;10791;53.108;18.326;2023-05-29T15:54:40;24.70;49.30
21267;DHT22;10791;53.108;18.326;2023-05-29T15:59:43;24.20;49.20
21267;DHT22;10791;53.108;18.326;2023-05-29T16:04:47;24.20;50.20
21267;DHT22;10791;53.108;18.326;2023-05-29T16:10:08;23.60;50.90
21267;DHT22;10791;53.108;18.326;2023-05-29T16:15:11;22.80;52.70
21267;DHT22;10791;53.108;18.326;2023-05-29T16:20:15;22.60;53.60
21267;DHT22;10791;53.108;18.326;2023-05-29T16:25:19;22.50;53.20
21267;DHT22;10791;53.108;18.326;2023-05-29T16:30:22;22.30;53.10
21267;DHT22;10791;53.108;18.326;2023-05-29T16:35:29;22.40;53.20
21267;DHT22;10791;53.108;18.326;2023-05-29T16:40:36;22.30;53.10
21267;DHT22;10791;53.108;18.326;2023-05-29T16:45:39;22.60;52.30
21267;DHT22;10791;53.108;18.326;2023-05-29T16:50:42;22.50;51.60
21267;DHT22;10791;53.108;18.326;2023-05-29T16:55:46;22.10;52.70
21267;DHT22;10791;53.108;18.326;2023-05-29T17:00:50;21.90;53.10
21267;DHT22;10791;53.108;18.326;2023-05-29T17:05:53;21.80;54.10
21267;DHT22;10791;53.108;18.326;2023-05-29T17:10:57;21.90;53.50
21267;DHT22;10791;53.108;18.326;2023-05-29T17:16:04;21.90;53.10
21267;DHT22;10791;53.108;18.326;2023-05-29T17:21:07;21.90;53.10
21267;DHT22;10791;53.108;18.326;2023-05-29T17:26:10;21.60;54.00
21267;DHT22;10791;53.108;18.326;2023-05-29T17:31:14;21.40;53.40
21267;DHT22;10791;53.108;18.326;2023-05-29T17:36:17;21.20;54.40
21267;DHT22;10791;53.108;18.326;2023-05-29T17:41:20;20.80;54.50
21267;DHT22;10791;53.108;18.326;2023-05-29T17:46:23;20.80;55.50
21267;DHT22;10791;53.108;18.326;2023-05-29T17:51:27;20.90;54.90
21267;DHT22;10791;53.108;18.326;2023-05-29T17:56:30;20.80;55.50
21267;DHT22;10791;53.108;18.326;2023-05-29T18:01:34;20.70;56.00
21267;DHT22;10791;53.108;18.326;2023-05-29T18:06:37;20.60;56.60
21267;DHT22;10791;53.108;18.326;2023-05-29T18:11:41;20.40;57.20
21267;DHT22;10791;53.108;18.326;2023-05-29T18:16:48;20.30;57.50
21267;DHT22;10791;53.108;18.326;2023-05-29T18:21:51;20.20;57.50
21267;DHT22;10791;53.108;18.326;2023-05-29T18:26:54;20.00;58.00
21267;DHT22;10791;53.108;18.326;2023-05-29T18:31:58;19.80;58.30
21267;DHT22;10791;53.108;18.326;2023-05-29T18:37:03;19.60;58.30
21267;DHT22;10791;53.108;18.326;2023-05-29T18:42:07;19.50;58.70
21267;DHT22;10791;53.108;18.326;2023-05-29T18:47:10;19.30;59.00
21267;DHT22;10791;53.108;18.326;2023-05-29T18:52:15;19.10;59.70
21267;DHT22;10791;53.108;18.326;2023-05-29T18:57:18;18.90;60.30
21267;DHT22;10791;53.108;18.326;2023-05-29T19:02:22;18.70;61.30
21267;DHT22;10791;53.108;18.326;2023-05-29T19:07:25;18.40;61.70
21267;DHT22;10791;53.108;18.326;2023-05-29T19:12:28;18.30;61.90
21267;DHT22;10791;53.108;18.326;2023-05-29T19:17:31;18.20;62.60
21267;DHT22;10791;53.108;18.326;2023-05-29T19:22:35;18.00;62.90
21267;DHT22;10791;53.108;18.326;2023-05-29T19:27:38;17.50;63.30
21267;DHT22;10791;53.108;18.326;2023-05-29T19:32:42;17.10;68.30
21267;DHT22;10791;53.108;18.326;2023-05-29T19:37:47;16.70;72.50
21267;DHT22;10791;53.108;18.326;2023-05-29T19:42:51;16.50;74.50
21267;DHT22;10791;53.108;18.326;2023-05-29T19:47:55;16.40;76.20
21267;DHT22;10791;53.108;18.326;2023-05-29T19:52:58;16.20;77.40
21267;DHT22;10791;53.108;18.326;2023-05-29T19:58:01;16.00;78.80
21267;DHT22;10791;53.108;18.326;2023-05-29T20:03:05;15.80;79.30
21267;DHT22;10791;53.108;18.326;2023-05-29T20:08:09;15.70;80.10
21267;DHT22;10791;53.108;18.326;2023-05-29T20:13:14;15.60;80.90
21267;DHT22;10791;53.108;18.326;2023-05-29T20:18:17;15.50;81.40
21267;DHT22;10791;53.108;18.326;2023-05-29T20:23:20;15.50;81.80
21267;DHT22;10791;53.108;18.326;2023-05-29T20:28:26;15.40;82.30
21267;DHT22;10791;53.108;18.326;2023-05-29T20:33:31;15.30;82.70
21267;DHT22;10791;53.108;18.326;2023-05-29T20:38:35;15.20;83.70
21267;DHT22;10791;53.108;18.326;2023-05-29T20:43:42;15.10;84.50
21267;DHT22;10791;53.108;18.326;2023-05-29T20:48:51;15.00;84.90
21267;DHT22;10791;53.108;18.326;2023-05-29T20:53:54;15.00;85.40
21267;DHT22;10791;53.108;18.326;2023-05-29T20:58:58;14.90;85.90
21267;DHT22;10791;53.108;18.326;2023-05-29T21:04:01;14.60;86.50
21267;DHT22;10791;53.108;18.326;2023-05-29T21:09:04;14.50;87.30
21267;DHT22;10791;53.108;18.326;2023-05-29T21:14:08;14.30;87.90
21267;DHT22;10791;53.108;18.326;2023-05-29T21:19:11;14.10;88.60
21267;DHT22;10791;53.108;18.326;2023-05-29T21:24:14;14.00;89.50
21267;DHT22;10791;53.108;18.326;2023-05-29T21:29:18;13.80;90.00
21267;DHT22;10791;53.108;18.326;2023-05-29T21:34:22;13.80;90.20
21267;DHT22;10791;53.108;18.326;2023-05-29T21:39:27;13.70;90.30
21267;DHT22;10791;53.108;18.326;2023-05-29T21:44:30;13.60;90.50
21267;DHT22;10791;53.108;18.326;2023-05-29T21:49:34;13.70;90.50
21267;DHT22;10791;53.108;18.326;2023-05-29T21:54:36;13.60;90.30
21267;DHT22;10791;53.108;18.326;2023-05-29T21:59:39;13.60;90.50
21267;DHT22;10791;53.108;18.326;2023-05-29T22:04:42;13.60;90.70
21267;DHT22;10791;53.108;18.326;2023-05-29T22:09:45;13.50;90.70
21267;DHT22;10791;53.108;18.326;2023-05-29T22:14:48;13.50;91.00
21267;DHT22;10791;53.108;18.326;2023-05-29T22:19:52;13.50;91.10
21267;DHT22;10791;53.108;18.326;2023-05-29T22:24:56;13.50;91.50
21267;DHT22;10791;53.108;18.326;2023-05-29T22:29:59;13.50;91.60
21267;DHT22;10791;53.108;18.326;2023-05-29T22:35:03;13.40;91.70
21267;DHT22;10791;53.108;18.326;2023-05-29T22:40:07;13.40;91.80
21267;DHT22;10791;53.108;18.326;2023-05-29T22:45:16;13.40;91.80
21267;DHT22;10791;53.108;18.326;2023-05-29T22:50:19;13.30;91.90
21267;DHT22;10791;53.108;18.326;2023-05-29T22:55:23;13.20;92.10
21267;DHT22;10791;53.108;18.326;2023-05-29T23:00:29;13.20;92.60
21267;DHT22;10791;53.108;18.326;2023-05-29T23:05:33;13.20;92.70
21267;DHT22;10791;53.108;18.326;2023-05-29T23:10:36;13.10;93.00
21267;DHT22;10791;53.108;18.326;2023-05-29T23:15:39;13.00;93.20
21267;DHT22;10791;53.108;18.326;2023-05-29T23:20:47;13.00;93.70
21267;DHT22;10791;53.108;18.326;2023-05-29T23:25:50;12.90;93.90
21267;DHT22;10791;53.108;18.326;2023-05-29T23:30:53;12.80;94.20
21267;DHT22;10791;53.108;18.326;2023-05-29T23:35:57;12.70;94.60
21267;DHT22;10791;53.108;18.326;2023-05-29T23:41:01;12.60;94.90
21267;DHT22;10791;53.108;18.326;2023-05-29T23:46:04;12.50;95.30
21267;DHT22;10791;53.108;18.326;2023-05-29T23:51:07;12.40;95.80
21267;DHT22;10791;53.108;18.326;2023-05-29T23:56:10;12.30;96.10
